createdAt,value
2017-08-06T00:01:45.710Z,30.70
2017-08-06T00:04:13.194Z,30.80
2017-08-06T00:06:40.685Z,30.80
2017-08-06T00:09:08.176Z,30.80
2017-08-06T00:11:36.431Z,30.70
2017-08-06T00:14:03.935Z,30.60
2017-08-06T00:16:31.417Z,30.70
2017-08-06T00:18:58.905Z,30.70
2017-08-06T00:21:26.413Z,30.70
2017-08-06T00:23:53.898Z,30.70
2017-08-06T00:26:21.382Z,30.70
2017-08-06T00:28:48.865Z,30.60
2017-08-06T00:31:17.115Z,30.70
2017-08-06T00:33:44.607Z,30.60
2017-08-06T00:36:12.110Z,30.60
2017-08-06T00:38:39.600Z,30.60
2017-08-06T00:41:07.079Z,30.40
2017-08-06T00:43:35.348Z,30.30
2017-08-06T00:46:03.594Z,30.40
2017-08-06T00:48:31.069Z,30.40
2017-08-06T00:50:58.572Z,30.40
2017-08-06T00:53:26.061Z,30.10
2017-08-06T00:55:53.557Z,30.00
2017-08-06T00:58:21.822Z,30.00
2017-08-06T01:00:49.310Z,30.00
2017-08-06T01:03:16.800Z,30.20
2017-08-06T01:05:44.298Z,30.30
2017-08-06T01:08:11.778Z,30.30
2017-08-06T01:10:40.041Z,30.20
2017-08-06T01:13:07.534Z,30.20
2017-08-06T01:15:35.014Z,30.20
2017-08-06T01:18:04.129Z,30.20
2017-08-06T01:20:31.636Z,30.20
2017-08-06T01:22:59.125Z,30.20
2017-08-06T01:25:26.601Z,30.20
2017-08-06T01:27:54.102Z,30.10
2017-08-06T01:30:22.346Z,29.90
2017-08-06T01:32:49.840Z,29.80
2017-08-06T01:35:18.093Z,30.10
2017-08-06T01:37:45.576Z,30.10
2017-08-06T01:40:13.830Z,30.00
2017-08-06T01:42:41.337Z,30.00
2017-08-06T01:45:08.822Z,29.70
2017-08-06T01:47:36.301Z,29.70
2017-08-06T01:50:03.789Z,29.60
2017-08-06T01:52:32.039Z,29.70
2017-08-06T01:54:59.526Z,29.70
2017-08-06T01:57:27.790Z,29.90
2017-08-06T01:59:55.283Z,29.90
2017-08-06T02:02:22.770Z,30.00
2017-08-06T02:04:50.271Z,30.00
2017-08-06T02:07:18.528Z,30.10
2017-08-06T02:09:46.006Z,30.00
2017-08-06T02:12:13.494Z,30.00
2017-08-06T02:14:40.977Z,30.00
2017-08-06T02:17:08.472Z,30.00
2017-08-06T02:19:35.987Z,30.00
2017-08-06T02:22:03.478Z,29.90
2017-08-06T02:24:30.974Z,29.80
2017-08-06T02:26:59.229Z,29.10
2017-08-06T02:29:26.705Z,29.10
2017-08-06T02:31:54.197Z,29.10
2017-08-06T02:34:21.686Z,29.00
2017-08-06T02:36:49.165Z,29.40
2017-08-06T02:39:16.646Z,29.60
2017-08-06T02:41:44.915Z,29.80
2017-08-06T02:44:13.172Z,29.70
2017-08-06T02:46:40.651Z,29.70
2017-08-06T02:49:08.915Z,29.80
2017-08-06T02:51:36.442Z,29.80
2017-08-06T02:54:03.932Z,29.80
2017-08-06T02:56:31.438Z,29.80
2017-08-06T02:58:58.918Z,29.70
2017-08-06T03:01:26.412Z,29.50
2017-08-06T03:03:53.919Z,29.30
2017-08-06T03:06:21.424Z,29.30
2017-08-06T03:08:48.910Z,29.30
2017-08-06T03:11:17.175Z,29.00
2017-08-06T03:13:45.439Z,29.30
2017-08-06T03:16:12.930Z,29.30
2017-08-06T03:18:40.426Z,29.50
2017-08-06T03:21:07.928Z,29.40
2017-08-06T03:23:36.181Z,29.10
2017-08-06T03:26:03.675Z,29.00
2017-08-06T03:28:31.931Z,29.60
2017-08-06T03:30:59.418Z,29.50
2017-08-06T03:33:26.931Z,29.20
2017-08-06T03:35:54.414Z,29.00
2017-08-06T03:38:21.904Z,29.20
2017-08-06T03:40:49.410Z,29.30
2017-08-06T03:43:16.923Z,29.40
2017-08-06T03:45:44.406Z,29.50
2017-08-06T03:48:11.902Z,29.50
2017-08-06T03:50:39.374Z,29.40
2017-08-06T03:53:07.622Z,29.50
2017-08-06T03:55:35.131Z,29.50
2017-08-06T03:58:02.619Z,29.50
2017-08-06T04:00:30.099Z,29.50
2017-08-06T04:02:57.600Z,29.50
2017-08-06T04:05:25.086Z,29.50
2017-08-06T04:07:52.561Z,29.50
2017-08-06T04:10:20.066Z,29.30
2017-08-06T04:12:48.325Z,29.10
2017-08-06T04:15:15.808Z,29.10
2017-08-06T04:17:44.079Z,28.90
2017-08-06T04:20:12.328Z,28.90
2017-08-06T04:22:39.819Z,28.90
2017-08-06T04:25:08.077Z,29.30
2017-08-06T04:27:35.559Z,29.20
2017-08-06T04:30:03.801Z,29.30
2017-08-06T04:32:31.312Z,29.30
2017-08-06T04:34:58.805Z,29.30
2017-08-06T04:37:26.287Z,29.30
2017-08-06T04:39:53.800Z,29.40
2017-08-06T04:42:21.278Z,29.30
2017-08-06T04:44:48.761Z,29.30
2017-08-06T04:47:16.253Z,29.30
2017-08-06T04:49:43.742Z,29.30
2017-08-06T04:52:11.235Z,29.30
2017-08-06T04:54:38.733Z,29.30
2017-08-06T04:57:06.381Z,29.30
2017-08-06T04:59:34.633Z,29.30
2017-08-06T05:02:02.135Z,29.30
2017-08-06T05:04:29.617Z,29.10
2017-08-06T05:06:57.117Z,28.90
2017-08-06T05:09:24.619Z,28.90
2017-08-06T05:11:52.099Z,28.60
2017-08-06T05:14:19.591Z,28.20
2017-08-06T05:16:47.087Z,28.50
2017-08-06T05:19:14.579Z,28.60
2017-08-06T05:21:42.092Z,29.10
2017-08-06T05:24:10.363Z,29.20
2017-08-06T05:26:38.606Z,29.20
2017-08-06T05:29:06.081Z,29.20
2017-08-06T05:31:33.580Z,29.20
2017-08-06T05:34:01.067Z,29.20
2017-08-06T05:36:28.546Z,29.10
2017-08-06T05:38:56.051Z,28.90
2017-08-06T05:41:23.547Z,29.10
2017-08-06T05:43:51.035Z,29.10
2017-08-06T05:46:18.529Z,29.30
2017-08-06T05:48:46.023Z,29.30
2017-08-06T05:51:13.516Z,29.20
2017-08-06T05:53:41.103Z,29.00
2017-08-06T05:56:08.583Z,29.00
2017-08-06T05:58:36.054Z,29.20
2017-08-06T06:01:03.550Z,29.20
2017-08-06T06:03:31.045Z,29.30
2017-08-06T06:05:58.542Z,29.30
2017-08-06T06:08:26.038Z,29.30
2017-08-06T06:10:53.523Z,29.40
2017-08-06T06:13:21.007Z,29.50
2017-08-06T06:15:48.506Z,29.40
2017-08-06T06:18:15.982Z,29.30
2017-08-06T06:20:44.228Z,29.40
2017-08-06T06:23:11.726Z,29.40
2017-08-06T06:25:39.974Z,29.50
2017-08-06T06:28:07.463Z,29.50
2017-08-06T06:30:34.972Z,29.50
2017-08-06T06:33:02.453Z,29.50
2017-08-06T06:35:29.939Z,29.30
2017-08-06T06:37:58.202Z,29.30
2017-08-06T06:40:26.458Z,29.30
2017-08-06T06:42:53.939Z,29.30
2017-08-06T06:45:22.206Z,29.50
2017-08-06T06:47:49.682Z,29.40
2017-08-06T06:50:17.953Z,29.50
2017-08-06T06:52:46.218Z,29.60
2017-08-06T06:55:13.732Z,29.50
2017-08-06T06:57:41.228Z,29.50
2017-08-06T07:00:08.727Z,29.40
2017-08-06T07:02:36.219Z,29.40
2017-08-06T07:05:03.703Z,29.50
2017-08-06T07:07:31.202Z,29.50
2017-08-06T07:09:58.692Z,29.60
2017-08-06T07:12:27.094Z,29.60
2017-08-06T07:14:54.599Z,29.70
2017-08-06T07:17:22.081Z,29.70
2017-08-06T07:19:49.571Z,29.70
2017-08-06T07:22:17.065Z,29.70
2017-08-06T07:24:45.328Z,29.60
2017-08-06T07:27:12.826Z,29.60
2017-08-06T07:29:40.334Z,29.70
2017-08-06T07:32:07.816Z,29.70
2017-08-06T07:34:36.070Z,29.80
2017-08-06T07:37:03.570Z,29.80
2017-08-06T07:39:31.062Z,29.90
2017-08-06T07:41:58.546Z,29.90
2017-08-06T07:44:26.046Z,29.90
2017-08-06T07:46:53.534Z,29.90
2017-08-06T07:49:21.014Z,29.90
2017-08-06T07:51:48.524Z,30.00
2017-08-06T07:54:16.003Z,30.10
2017-08-06T07:56:43.502Z,30.10
2017-08-06T07:59:10.985Z,30.10
2017-08-06T08:01:39.250Z,30.20
2017-08-06T08:04:06.745Z,30.20
2017-08-06T08:06:34.242Z,30.30
2017-08-06T08:09:01.726Z,30.30
2017-08-06T08:11:29.987Z,30.40
2017-08-06T08:13:57.486Z,30.30
2017-08-06T08:16:24.979Z,30.40
2017-08-06T08:18:52.472Z,30.40
2017-08-06T08:21:19.978Z,30.40
2017-08-06T08:23:47.452Z,30.30
2017-08-06T08:26:14.929Z,30.50
2017-08-06T08:28:42.431Z,30.60
2017-08-06T08:31:10.682Z,30.60
2017-08-06T08:33:38.179Z,30.50
2017-08-06T08:36:05.687Z,30.50
2017-08-06T08:38:33.176Z,30.40
2017-08-06T08:41:01.437Z,30.60
2017-08-06T08:43:28.930Z,30.60
2017-08-06T08:45:56.430Z,30.60
2017-08-06T08:48:23.947Z,30.60
2017-08-06T08:50:51.447Z,30.90
2017-08-06T08:53:18.948Z,30.70
2017-08-06T08:55:47.213Z,31.30
2017-08-06T08:58:14.751Z,31.20
2017-08-06T09:00:42.263Z,31.10
2017-08-06T09:03:09.828Z,31.30
2017-08-06T09:05:37.389Z,31.30
2017-08-06T09:08:04.898Z,31.10
2017-08-06T09:10:32.417Z,31.00
2017-08-06T09:13:00.041Z,31.30
2017-08-06T09:15:28.335Z,31.60
2017-08-06T09:17:55.917Z,31.50
2017-08-06T09:20:23.447Z,31.80
2017-08-06T09:22:51.705Z,31.90
2017-08-06T09:25:19.204Z,31.80
2017-08-06T09:27:46.731Z,31.90
2017-08-06T09:30:14.222Z,32.00
2017-08-06T09:32:41.715Z,32.00
2017-08-06T09:35:09.222Z,31.90
2017-08-06T09:37:37.578Z,31.90
2017-08-06T09:40:05.089Z,31.90
2017-08-06T09:42:32.600Z,31.80
2017-08-06T09:45:00.106Z,32.10
2017-08-06T09:47:27.617Z,31.70
2017-08-06T09:49:55.156Z,32.10
2017-08-06T09:52:22.643Z,32.40
2017-08-06T09:54:50.939Z,32.50
2017-08-06T09:57:19.219Z,32.50
2017-08-06T09:59:47.554Z,33.90
2017-08-06T10:02:15.060Z,33.80
2017-08-06T10:04:43.338Z,35.50
2017-08-06T10:07:11.635Z,35.80
2017-08-06T10:09:39.133Z,35.80
2017-08-06T10:12:06.712Z,35.90
2017-08-06T10:14:34.201Z,36.30
2017-08-06T10:17:01.714Z,35.60
2017-08-06T10:19:29.220Z,35.00
2017-08-06T10:21:56.725Z,34.00
2017-08-06T10:24:24.361Z,33.60
2017-08-06T10:26:52.120Z,33.70
2017-08-06T10:29:19.641Z,33.40
2017-08-06T10:31:47.965Z,34.30
2017-08-06T10:34:15.548Z,34.30
2017-08-06T10:36:43.098Z,34.20
2017-08-06T10:39:10.593Z,33.80
2017-08-06T10:41:38.095Z,33.70
2017-08-06T10:44:05.617Z,34.00
2017-08-06T10:46:33.880Z,34.50
2017-08-06T10:49:01.401Z,34.50
2017-08-06T10:51:28.968Z,34.40
2017-08-06T10:53:56.458Z,34.30
2017-08-06T10:56:24.033Z,34.20
2017-08-06T10:58:52.329Z,34.30
2017-08-06T11:01:19.868Z,34.30
2017-08-06T11:03:47.485Z,34.40
2017-08-06T11:06:15.011Z,34.50
2017-08-06T11:08:43.351Z,34.20
2017-08-06T11:11:10.891Z,34.20
2017-08-06T11:13:38.386Z,34.00
2017-08-06T11:16:05.907Z,34.10
2017-08-06T11:18:33.426Z,33.90
2017-08-06T11:21:00.939Z,34.20
2017-08-06T11:23:28.439Z,34.40
2017-08-06T11:25:56.759Z,34.30
2017-08-06T11:28:24.241Z,34.30
2017-08-06T11:30:51.732Z,34.00
2017-08-06T11:33:20.003Z,33.60
2017-08-06T11:35:48.253Z,33.50
2017-08-06T11:38:15.734Z,33.40
2017-08-06T11:40:43.242Z,33.60
2017-08-06T11:43:10.739Z,33.50
2017-08-06T11:45:38.225Z,33.10
2017-08-06T11:48:06.499Z,33.30
2017-08-06T11:50:34.750Z,33.10
2017-08-06T11:53:02.239Z,33.10
2017-08-06T11:55:30.511Z,32.80
2017-08-06T11:57:58.810Z,32.90
2017-08-06T12:00:26.304Z,32.80
2017-08-06T12:02:53.821Z,33.00
2017-08-06T12:05:21.321Z,33.30
2017-08-06T12:07:48.800Z,33.10
2017-08-06T12:10:16.301Z,33.00
2017-08-06T12:12:44.551Z,33.10
2017-08-06T12:15:12.035Z,33.10
2017-08-06T12:17:40.306Z,32.80
2017-08-06T12:20:08.580Z,33.50
2017-08-06T12:22:36.845Z,33.20
2017-08-06T12:25:04.350Z,33.10
2017-08-06T12:27:31.870Z,32.70
2017-08-06T12:30:00.132Z,33.10
2017-08-06T12:32:27.655Z,33.10
2017-08-06T12:34:55.159Z,32.90
2017-08-06T12:37:22.669Z,32.90
2017-08-06T12:39:50.178Z,33.00
2017-08-06T12:42:18.465Z,32.70
2017-08-06T12:44:46.779Z,32.60
2017-08-06T12:47:14.322Z,32.60
2017-08-06T12:49:41.832Z,32.60
2017-08-06T12:52:09.327Z,32.60
2017-08-06T12:54:37.594Z,32.40
2017-08-06T12:57:05.889Z,32.50
2017-08-06T12:59:33.380Z,32.40
2017-08-06T13:02:00.911Z,32.60
2017-08-06T13:04:28.427Z,32.60
2017-08-06T13:06:55.908Z,32.70
2017-08-06T13:09:23.421Z,32.90
2017-08-06T13:11:50.937Z,33.10
2017-08-06T13:14:19.220Z,33.10
2017-08-06T13:16:47.495Z,33.10
2017-08-06T13:19:15.785Z,33.20
2017-08-06T13:21:43.288Z,33.20
2017-08-06T13:24:10.826Z,33.10
2017-08-06T13:26:38.329Z,33.10
2017-08-06T13:29:05.828Z,33.10
2017-08-06T13:31:33.330Z,33.10
2017-08-06T13:34:00.842Z,32.90
2017-08-06T13:36:28.370Z,32.90
2017-08-06T13:38:55.881Z,33.10
2017-08-06T13:41:23.390Z,33.10
2017-08-06T13:43:50.891Z,32.90
2017-08-06T13:46:18.459Z,32.90
2017-08-06T13:48:45.990Z,32.70
2017-08-06T13:51:13.513Z,32.50
2017-08-06T13:53:41.022Z,32.30
2017-08-06T13:56:08.550Z,32.40
2017-08-06T13:58:36.030Z,32.40
2017-08-06T14:01:03.546Z,32.30
2017-08-06T14:03:31.030Z,32.50
2017-08-06T14:05:59.280Z,32.70
2017-08-06T14:08:26.786Z,32.70
2017-08-06T14:10:54.274Z,32.80
2017-08-06T14:13:21.763Z,32.80
2017-08-06T14:15:49.266Z,32.90
2017-08-06T14:18:16.750Z,32.80
2017-08-06T14:20:44.252Z,32.90
2017-08-06T14:23:11.764Z,32.80
2017-08-06T14:25:39.634Z,32.70
2017-08-06T14:28:08.539Z,33.00
2017-08-06T14:30:36.257Z,33.00
2017-08-06T14:33:05.564Z,33.10
2017-08-06T14:35:34.559Z,33.10
2017-08-06T14:38:02.863Z,33.10
2017-08-06T14:40:30.731Z,33.40
2017-08-06T14:42:59.010Z,33.40
2017-08-06T14:45:27.521Z,33.50
2017-08-06T14:47:55.769Z,33.20
2017-08-06T14:50:23.716Z,33.30
2017-08-06T14:52:51.917Z,33.10
2017-08-06T14:55:27.696Z,33.00
2017-08-06T14:58:10.126Z,32.90
2017-08-06T15:00:49.387Z,32.90
2017-08-06T15:03:27.210Z,32.90
2017-08-06T15:06:02.776Z,32.90
2017-08-06T15:08:41.408Z,33.00
2017-08-06T15:14:08.832Z,33.10
2017-08-06T15:16:46.159Z,33.00
2017-08-06T15:22:10.619Z,33.00
2017-08-06T15:24:39.842Z,33.00
2017-08-06T15:27:07.657Z,33.10
2017-08-06T15:29:36.002Z,33.00
2017-08-06T15:32:04.301Z,32.70
2017-08-06T15:34:32.253Z,32.90
2017-08-06T15:37:00.366Z,32.70
2017-08-06T15:39:28.841Z,32.80
2017-08-06T15:41:56.924Z,32.80
2017-08-06T15:44:24.593Z,32.80
2017-08-06T15:46:52.248Z,32.80
2017-08-06T15:49:20.253Z,32.80
2017-08-06T15:51:48.273Z,32.70
2017-08-06T15:54:15.979Z,32.80
2017-08-06T15:56:44.471Z,32.60
2017-08-06T15:59:13.506Z,32.70
2017-08-06T16:01:42.078Z,32.90
2017-08-06T16:04:09.957Z,32.70
2017-08-06T16:06:38.084Z,32.60
2017-08-06T16:09:06.175Z,32.00
2017-08-06T16:11:34.156Z,29.90
2017-08-06T16:14:01.812Z,28.60
2017-08-06T16:16:29.940Z,26.20
2017-08-06T16:18:57.963Z,25.30
2017-08-06T16:21:26.097Z,26.10
2017-08-06T16:23:54.523Z,27.10
2017-08-06T16:26:22.593Z,27.10
2017-08-06T16:28:50.702Z,26.90
2017-08-06T16:31:18.531Z,26.60
2017-08-06T16:33:46.422Z,26.00
2017-08-06T16:36:14.038Z,25.80
2017-08-06T16:38:42.255Z,25.80
2017-08-06T16:41:10.226Z,26.40
2017-08-06T16:43:38.286Z,26.20
2017-08-06T16:46:06.354Z,26.90
2017-08-06T16:48:34.390Z,27.30
2017-08-06T16:51:02.395Z,27.40
2017-08-06T16:53:30.898Z,27.10
2017-08-06T16:55:58.838Z,26.50
2017-08-06T16:58:26.614Z,27.00
2017-08-06T17:00:54.604Z,26.90
2017-08-06T17:03:22.235Z,26.80
2017-08-06T17:05:50.249Z,26.60
2017-08-06T17:08:18.300Z,26.80
2017-08-06T17:10:47.437Z,26.70
2017-08-06T17:13:15.882Z,26.60
2017-08-06T17:15:44.005Z,26.80
2017-08-06T17:18:12.498Z,27.20
2017-08-06T17:20:41.030Z,26.70
2017-08-06T17:23:08.625Z,26.70
2017-08-06T17:25:37.359Z,27.50
2017-08-06T17:28:05.327Z,27.50
2017-08-06T17:30:33.159Z,28.00
2017-08-06T17:33:00.965Z,27.20
2017-08-06T17:35:29.118Z,27.70
2017-08-06T17:37:57.441Z,27.90
2017-08-06T17:40:25.818Z,28.10
2017-08-06T17:42:53.865Z,28.20
2017-08-06T17:45:22.867Z,28.20
2017-08-06T17:47:52.026Z,28.30
2017-08-06T17:50:21.066Z,28.30
2017-08-06T17:52:49.348Z,28.30
2017-08-06T17:55:17.755Z,28.40
2017-08-06T17:57:45.866Z,28.20
2017-08-06T18:00:13.855Z,27.60
2017-08-06T18:02:41.554Z,27.30
2017-08-06T18:05:09.389Z,27.50
2017-08-06T18:07:37.966Z,27.90
2017-08-06T18:10:06.391Z,27.60
2017-08-06T18:12:34.118Z,27.30
2017-08-06T18:15:02.226Z,27.30
2017-08-06T18:17:30.326Z,27.40
2017-08-06T18:19:58.539Z,27.90
2017-08-06T18:22:27.355Z,27.40
2017-08-06T18:24:55.949Z,27.20
2017-08-06T18:27:23.646Z,26.80
2017-08-06T18:29:52.298Z,27.40
2017-08-06T18:32:20.438Z,27.30
2017-08-06T18:34:48.131Z,27.40
2017-08-06T18:37:16.072Z,27.50
2017-08-06T18:39:44.350Z,27.30
2017-08-06T18:42:12.729Z,27.00
2017-08-06T18:44:40.660Z,27.00
2017-08-06T18:47:08.374Z,27.30
2017-08-06T18:49:36.488Z,27.10
2017-08-06T18:52:05.416Z,26.60
2017-08-06T18:54:33.912Z,26.60
2017-08-06T18:57:02.141Z,26.90
2017-08-06T18:59:30.174Z,26.70
2017-08-06T19:01:58.765Z,26.80
2017-08-06T19:04:26.504Z,27.40
2017-08-06T19:06:55.143Z,27.50
2017-08-06T19:09:23.964Z,28.00
2017-08-06T19:11:52.352Z,27.90
2017-08-06T19:14:20.182Z,27.40
2017-08-06T19:16:48.648Z,27.00
2017-08-06T19:19:17.324Z,27.40
2017-08-06T19:21:45.292Z,28.00
2017-08-06T19:24:13.731Z,28.00
2017-08-06T19:26:41.930Z,28.00
2017-08-06T19:29:10.065Z,28.10
2017-08-06T19:31:38.085Z,28.20
2017-08-06T19:34:06.867Z,27.90
2017-08-06T19:36:35.658Z,27.30
2017-08-06T19:39:03.724Z,27.70
2017-08-06T19:41:32.195Z,27.30
2017-08-06T19:44:00.541Z,27.20
2017-08-06T19:46:28.255Z,27.30
2017-08-06T19:48:56.161Z,27.40
2017-08-06T19:51:25.106Z,27.20
2017-08-06T19:53:53.938Z,27.40
2017-08-06T19:56:21.997Z,26.90
2017-08-06T19:58:50.236Z,27.40
2017-08-06T20:01:18.142Z,27.20
2017-08-06T20:03:46.504Z,27.10
2017-08-06T20:06:14.595Z,27.00
2017-08-06T20:08:43.035Z,26.70
2017-08-06T20:11:11.248Z,26.70
2017-08-06T20:13:40.217Z,26.60
2017-08-06T20:16:07.877Z,26.40
2017-08-06T20:18:36.267Z,25.90
2017-08-06T20:21:04.237Z,26.50
2017-08-06T20:23:33.242Z,27.20
2017-08-06T20:26:01.149Z,27.50
2017-08-06T20:28:29.140Z,26.90
2017-08-06T20:30:57.583Z,27.60
2017-08-06T20:33:25.624Z,27.60
2017-08-06T20:35:53.595Z,27.70
2017-08-06T20:38:21.836Z,28.10
2017-08-06T20:40:51.263Z,28.10
2017-08-06T20:43:19.406Z,28.10
2017-08-06T20:45:47.522Z,28.00
2017-08-06T20:48:15.462Z,28.00
2017-08-06T20:50:43.668Z,28.30
2017-08-06T20:53:12.115Z,28.20
2017-08-06T20:55:40.278Z,28.00
2017-08-06T20:58:08.601Z,27.50
2017-08-06T21:00:36.291Z,27.40
2017-08-06T21:03:03.807Z,27.50
2017-08-06T21:05:31.550Z,27.20
2017-08-06T21:07:59.989Z,27.50
2017-08-06T21:10:28.476Z,27.90
2017-08-06T21:12:56.086Z,27.90
2017-08-06T21:15:24.329Z,27.70
2017-08-06T21:17:51.996Z,27.60
2017-08-06T21:20:19.618Z,27.90
2017-08-06T21:22:47.502Z,28.10
2017-08-06T21:25:15.377Z,27.30
2017-08-06T21:27:42.913Z,27.50
2017-08-06T21:30:10.579Z,27.10
2017-08-06T21:32:38.274Z,27.20
2017-08-06T21:35:05.978Z,27.70
2017-08-06T21:37:34.439Z,27.80
2017-08-06T21:40:02.000Z,27.70
2017-08-06T21:42:29.579Z,27.90
2017-08-06T21:44:57.882Z,28.10
2017-08-06T21:47:26.104Z,28.10
2017-08-06T21:49:54.263Z,28.20
2017-08-06T21:52:21.738Z,28.00
2017-08-06T21:54:49.245Z,27.70
2017-08-06T21:57:16.751Z,27.10
2017-08-06T21:59:44.253Z,27.20
2017-08-06T22:02:11.747Z,27.40
2017-08-06T22:04:39.384Z,27.50
2017-08-06T22:07:07.954Z,27.60
2017-08-06T22:09:35.616Z,28.00
2017-08-06T22:12:03.511Z,27.90
2017-08-06T22:14:31.698Z,27.40
2017-08-06T22:16:59.835Z,27.50
2017-08-06T22:19:27.838Z,27.60
2017-08-06T22:21:56.108Z,27.50
2017-08-06T22:24:24.532Z,27.40
2017-08-06T22:26:52.102Z,26.90
2017-08-06T22:29:19.950Z,26.40
2017-08-06T22:31:47.905Z,26.80
2017-08-06T22:34:15.898Z,27.30
2017-08-06T22:36:43.495Z,27.50
2017-08-06T22:39:11.998Z,27.50
2017-08-06T22:41:40.323Z,27.50
2017-08-06T22:44:08.251Z,27.50
2017-08-06T22:46:36.126Z,27.50
2017-08-06T22:49:04.202Z,27.40
2017-08-06T22:51:32.330Z,27.40
2017-08-06T22:54:00.479Z,27.50
2017-08-06T22:56:28.304Z,27.00
2017-08-06T22:58:56.082Z,27.20
2017-08-06T23:01:23.635Z,27.30
2017-08-06T23:03:51.463Z,27.40
2017-08-06T23:06:19.610Z,27.50
2017-08-06T23:08:47.602Z,27.50
2017-08-06T23:11:15.367Z,27.50
2017-08-06T23:13:43.071Z,27.40
2017-08-06T23:16:11.556Z,27.20
2017-08-06T23:18:39.125Z,27.10
2017-08-06T23:21:06.681Z,27.30
2017-08-06T23:23:34.422Z,27.30
2017-08-06T23:26:02.168Z,27.20
2017-08-06T23:28:29.718Z,26.80
2017-08-06T23:30:57.199Z,26.60
2017-08-06T23:33:25.824Z,26.90
2017-08-06T23:35:53.749Z,26.80
2017-08-06T23:38:22.182Z,27.00
2017-08-06T23:40:49.763Z,27.00
2017-08-06T23:43:17.252Z,26.90
2017-08-06T23:45:45.556Z,26.40
2017-08-06T23:48:13.119Z,26.40
2017-08-06T23:50:40.603Z,25.60
2017-08-06T23:53:08.242Z,25.70
2017-08-06T23:55:35.740Z,25.70
2017-08-06T23:58:03.230Z,26.10
